createdAt,value
2018-06-21T00:00:42.015Z,19.20
2018-06-21T00:03:10.455Z,19.20
2018-06-21T00:05:38.894Z,19.20
2018-06-21T00:08:07.350Z,19.10
2018-06-21T00:10:35.873Z,19.10
2018-06-21T00:13:04.329Z,19.10
2018-06-21T00:15:32.741Z,19.10
2018-06-21T00:18:01.132Z,19.00
2018-06-21T00:22:57.793Z,19.00
2018-06-21T00:25:26.237Z,19.00
2018-06-21T00:27:54.652Z,18.90
2018-06-21T00:30:23.093Z,18.90
2018-06-21T00:32:51.713Z,18.90
2018-06-21T00:35:20.223Z,18.80
2018-06-21T00:37:48.671Z,18.80
2018-06-21T00:40:17.151Z,18.70
2018-06-21T00:42:45.591Z,18.70
2018-06-21T00:45:14.050Z,18.70
2018-06-21T00:47:42.471Z,18.70
2018-06-21T00:50:10.870Z,18.60
2018-06-21T00:52:39.386Z,18.70
2018-06-21T00:55:07.804Z,18.60
2018-06-21T00:57:36.201Z,18.50
2018-06-21T01:02:32.742Z,18.40
2018-06-21T01:07:29.292Z,18.30
2018-06-21T01:09:57.706Z,18.20
2018-06-21T01:14:54.991Z,18.20
2018-06-21T01:17:23.500Z,18.20
2018-06-21T01:19:51.912Z,18.10
2018-06-21T01:22:21.414Z,18.20
2018-06-21T01:24:49.805Z,18.10
2018-06-21T01:27:18.217Z,18.20
2018-06-21T01:32:14.742Z,18.10
2018-06-21T01:34:43.166Z,18.10
2018-06-21T01:37:11.619Z,18.10
2018-06-21T01:39:40.079Z,18.10
2018-06-21T01:42:08.549Z,18.00
2018-06-21T01:44:37.042Z,18.00
2018-06-21T01:47:05.599Z,18.00
2018-06-21T01:49:34.016Z,18.00
2018-06-21T01:52:02.435Z,18.00
2018-06-21T01:54:30.970Z,17.90
2018-06-21T01:56:59.882Z,18.00
2018-06-21T01:59:28.302Z,18.00
2018-06-21T02:01:56.712Z,18.00
2018-06-21T02:04:25.158Z,17.90
2018-06-21T02:06:53.658Z,18.00
2018-06-21T02:09:22.106Z,17.90
2018-06-21T02:11:50.624Z,17.90
2018-06-21T02:14:19.194Z,17.90
2018-06-21T02:16:47.640Z,17.90
2018-06-21T02:19:16.066Z,17.80
2018-06-21T02:21:44.531Z,17.80
2018-06-21T02:24:12.953Z,17.70
2018-06-21T02:26:41.405Z,17.70
2018-06-21T02:29:09.842Z,17.60
2018-06-21T02:31:38.623Z,17.60
2018-06-21T02:34:07.484Z,17.50
2018-06-21T02:36:35.992Z,17.50
2018-06-21T02:39:06.499Z,17.50
2018-06-21T02:41:35.028Z,17.50
2018-06-21T02:46:31.689Z,17.50
2018-06-21T02:49:00.088Z,17.50
2018-06-21T02:53:56.659Z,17.50
2018-06-21T02:56:25.074Z,17.50
2018-06-21T02:58:53.616Z,17.50
2018-06-21T03:01:22.049Z,17.40
2018-06-21T03:03:50.522Z,17.40
2018-06-21T03:08:47.165Z,17.40
2018-06-21T03:11:15.590Z,17.40
2018-06-21T03:13:43.990Z,17.40
2018-06-21T03:16:12.437Z,17.30
2018-06-21T03:18:40.926Z,17.30
2018-06-21T03:21:09.332Z,17.30
2018-06-21T03:23:37.748Z,17.30
2018-06-21T03:28:34.302Z,17.30
2018-06-21T03:31:02.773Z,17.40
2018-06-21T03:33:31.205Z,17.40
2018-06-21T03:38:27.810Z,17.40
2018-06-21T03:40:56.267Z,17.40
2018-06-21T03:43:24.703Z,17.40
2018-06-21T03:45:53.121Z,17.40
2018-06-21T03:48:21.533Z,17.40
2018-06-21T03:50:50.029Z,17.40
2018-06-21T03:53:18.490Z,17.40
2018-06-21T03:55:47.033Z,17.50
2018-06-21T03:58:15.493Z,17.50
2018-06-21T04:00:43.929Z,17.60
2018-06-21T04:03:12.688Z,17.60
2018-06-21T04:05:41.243Z,17.60
2018-06-21T04:08:09.705Z,17.60
2018-06-21T04:10:38.111Z,17.70
2018-06-21T04:13:06.618Z,17.70
2018-06-21T04:15:35.091Z,17.80
2018-06-21T04:18:03.539Z,17.80
2018-06-21T04:20:32.000Z,17.90
2018-06-21T04:23:00.472Z,18.00
2018-06-21T04:25:28.932Z,18.00
2018-06-21T04:27:57.473Z,18.10
2018-06-21T04:32:54.179Z,18.10
2018-06-21T04:35:22.752Z,18.10
2018-06-21T04:37:51.266Z,18.20
2018-06-21T04:40:19.712Z,18.20
2018-06-21T04:42:48.181Z,18.30
2018-06-21T04:47:44.763Z,18.40
2018-06-21T04:50:13.316Z,18.50
2018-06-21T04:52:42.003Z,18.60
2018-06-21T04:55:10.417Z,18.70
2018-06-21T04:57:38.883Z,18.70
2018-06-21T05:00:07.407Z,18.90
2018-06-21T05:02:35.863Z,19.00
2018-06-21T05:05:04.444Z,19.10
2018-06-21T05:10:02.012Z,19.20
2018-06-21T05:12:30.454Z,19.40
2018-06-21T05:14:58.984Z,19.40
2018-06-21T05:17:27.562Z,19.50
2018-06-21T05:19:56.535Z,19.60
2018-06-21T05:22:25.063Z,19.70
2018-06-21T05:24:53.496Z,19.70
2018-06-21T05:27:22.042Z,19.70
2018-06-21T05:29:50.477Z,19.70
2018-06-21T05:32:18.942Z,19.80
2018-06-21T05:34:47.420Z,19.80
2018-06-21T05:37:15.904Z,19.90
2018-06-21T05:39:44.359Z,19.90
2018-06-21T05:42:12.891Z,19.90
2018-06-21T05:44:41.368Z,20.00
2018-06-21T05:47:09.816Z,20.10
2018-06-21T05:49:38.290Z,20.20
2018-06-21T05:52:06.780Z,20.20
2018-06-21T05:54:35.246Z,20.30
2018-06-21T05:57:03.731Z,20.40
2018-06-21T05:59:32.178Z,20.40
2018-06-21T06:02:00.773Z,20.50
2018-06-21T06:04:29.238Z,20.70
2018-06-21T06:06:57.760Z,20.80
2018-06-21T06:09:26.284Z,20.90
2018-06-21T06:11:54.779Z,21.00
2018-06-21T06:14:23.255Z,21.10
2018-06-21T06:16:51.718Z,21.20
2018-06-21T06:19:20.210Z,21.30
2018-06-21T06:21:48.703Z,21.40
2018-06-21T06:24:17.230Z,21.50
2018-06-21T06:26:45.704Z,21.60
2018-06-21T06:29:14.172Z,21.70
2018-06-21T06:31:42.612Z,21.80
2018-06-21T06:34:11.150Z,21.90
2018-06-21T06:39:19.563Z,22.00
2018-06-21T06:41:50.204Z,22.10
2018-06-21T06:44:19.245Z,22.30
2018-06-21T06:46:47.701Z,22.40
2018-06-21T06:49:16.169Z,22.50
2018-06-21T06:51:44.702Z,22.70
2018-06-21T06:54:13.160Z,22.70
2018-06-21T06:59:10.002Z,22.90
2018-06-21T07:01:38.499Z,23.10
2018-06-21T07:04:07.029Z,23.10
2018-06-21T07:06:35.461Z,23.20
2018-06-21T07:09:06.365Z,23.40
2018-06-21T07:11:34.809Z,23.50
2018-06-21T07:14:03.359Z,23.60
2018-06-21T07:16:31.848Z,23.70
2018-06-21T07:19:00.298Z,23.90
2018-06-21T07:21:28.776Z,24.00
2018-06-21T07:23:57.218Z,24.10
2018-06-21T07:26:25.669Z,24.20
2018-06-21T07:28:54.259Z,24.40
2018-06-21T07:31:22.748Z,24.40
2018-06-21T07:33:51.374Z,24.50
2018-06-21T07:36:19.812Z,24.60
2018-06-21T07:38:49.017Z,24.70
2018-06-21T07:41:17.515Z,24.70
2018-06-21T07:43:45.970Z,24.80
2018-06-21T07:46:14.435Z,24.80
2018-06-21T07:48:43.114Z,24.90
2018-06-21T07:51:11.565Z,25.00
2018-06-21T07:53:39.993Z,25.10
2018-06-21T07:56:08.507Z,25.10
2018-06-21T07:58:37.021Z,25.20
2018-06-21T08:01:05.491Z,25.20
2018-06-21T08:03:33.944Z,25.30
2018-06-21T08:06:02.421Z,25.30
2018-06-21T08:08:31.828Z,25.40
2018-06-21T08:11:00.513Z,25.40
2018-06-21T08:13:28.963Z,25.50
2018-06-21T08:15:57.901Z,25.60
2018-06-21T08:23:22.969Z,25.90
2018-06-21T08:25:51.424Z,25.90
2018-06-21T08:28:19.905Z,25.90
2018-06-21T08:30:48.386Z,26.00
2018-06-21T08:35:45.067Z,26.20
2018-06-21T08:40:41.777Z,26.40
2018-06-21T08:43:10.230Z,26.50
2018-06-21T08:45:38.756Z,26.60
2018-06-21T08:48:07.243Z,26.70
2018-06-21T08:50:35.746Z,26.70
2018-06-21T08:53:04.312Z,26.70
2018-06-21T08:55:32.808Z,26.80
2018-06-21T08:58:01.372Z,26.80
2018-06-21T09:00:29.922Z,26.80
2018-06-21T09:02:58.368Z,26.80
2018-06-21T09:05:26.847Z,26.90
2018-06-21T09:07:55.329Z,26.90
2018-06-21T09:10:23.815Z,26.80
2018-06-21T09:12:53.286Z,26.70
2018-06-21T09:15:21.824Z,26.70
2018-06-21T09:17:50.268Z,26.80
2018-06-21T09:20:18.798Z,26.80
2018-06-21T09:22:48.340Z,26.90
2018-06-21T09:25:16.934Z,27.10
2018-06-21T09:30:13.640Z,27.30
2018-06-21T09:32:42.144Z,27.30
2018-06-21T09:35:10.598Z,27.20
2018-06-21T09:37:44.393Z,27.30
2018-06-21T09:40:18.170Z,27.50
2018-06-21T09:42:52.416Z,27.60
2018-06-21T09:45:26.204Z,27.70
2018-06-21T09:48:00.143Z,27.80
2018-06-21T09:50:28.697Z,27.90
2018-06-21T09:52:57.204Z,28.00
2018-06-21T09:55:26.068Z,28.10
2018-06-21T09:57:54.537Z,28.20
2018-06-21T10:00:28.224Z,28.30
2018-06-21T10:02:56.742Z,28.40
2018-06-21T10:07:53.348Z,28.70
2018-06-21T10:10:21.932Z,28.80
2018-06-21T10:12:50.402Z,28.60
2018-06-21T10:15:19.141Z,28.50
2018-06-21T10:17:47.651Z,28.40
2018-06-21T10:22:44.997Z,28.40
2018-06-21T10:25:13.680Z,28.60
2018-06-21T10:27:42.284Z,28.70
2018-06-21T10:30:10.739Z,28.80
2018-06-21T10:32:39.207Z,28.80
2018-06-21T10:35:07.735Z,28.90
2018-06-21T10:37:36.137Z,29.10
2018-06-21T10:40:04.665Z,29.30
2018-06-21T10:42:33.154Z,29.30
2018-06-21T10:45:01.627Z,29.40
2018-06-21T10:47:30.159Z,29.50
2018-06-21T10:49:58.648Z,29.60
2018-06-21T10:52:27.112Z,29.60
2018-06-21T10:54:55.564Z,29.70
2018-06-21T10:57:24.120Z,29.80
2018-06-21T10:59:52.594Z,29.80
2018-06-21T11:02:21.051Z,29.70
2018-06-21T11:04:49.526Z,29.80
2018-06-21T11:07:18.017Z,29.80
2018-06-21T11:09:46.465Z,29.60
2018-06-21T11:14:43.177Z,29.10
2018-06-21T11:17:11.659Z,28.80
2018-06-21T11:19:40.126Z,28.70
2018-06-21T11:22:08.570Z,28.50
2018-06-21T11:24:37.061Z,28.40
2018-06-21T11:27:05.544Z,28.10
2018-06-21T11:29:34.028Z,28.00
2018-06-21T11:32:02.496Z,27.90
2018-06-21T11:34:30.984Z,27.70
2018-06-21T11:36:59.522Z,27.60
2018-06-21T11:39:28.039Z,27.60
2018-06-21T11:41:56.491Z,27.60
2018-06-21T11:44:24.941Z,27.70
2018-06-21T11:49:21.575Z,27.70
2018-06-21T11:51:50.043Z,27.90
2018-06-21T11:54:18.494Z,28.20
2018-06-21T11:56:46.949Z,28.40
2018-06-21T11:59:15.460Z,28.50
2018-06-21T12:04:12.134Z,28.80
2018-06-21T12:06:40.591Z,29.00
2018-06-21T12:09:10.665Z,29.00
2018-06-21T12:11:39.123Z,28.90
2018-06-21T12:14:08.064Z,28.70
2018-06-21T12:16:37.162Z,28.50
2018-06-21T12:19:05.791Z,28.50
2018-06-21T12:21:36.039Z,28.60
2018-06-21T12:24:05.269Z,28.60
2018-06-21T12:26:34.180Z,28.60
2018-06-21T12:29:02.696Z,28.80
2018-06-21T12:31:31.150Z,28.90
2018-06-21T12:33:59.685Z,29.00
2018-06-21T12:36:28.195Z,29.00
2018-06-21T12:38:56.793Z,29.00
2018-06-21T12:41:25.280Z,29.20
2018-06-21T12:43:53.786Z,29.20
2018-06-21T12:46:22.264Z,29.30
2018-06-21T12:48:50.848Z,29.30
2018-06-21T12:51:19.414Z,29.30
2018-06-21T12:53:48.856Z,29.40
2018-06-21T12:56:17.374Z,29.40
2018-06-21T12:58:45.836Z,29.50
2018-06-21T13:01:14.335Z,29.50
2018-06-21T13:03:42.853Z,29.50
2018-06-21T13:06:11.347Z,29.60
2018-06-21T13:11:25.081Z,29.40
2018-06-21T13:14:03.618Z,29.30
2018-06-21T13:19:00.259Z,29.20
2018-06-21T13:21:28.931Z,29.30
2018-06-21T13:23:57.674Z,29.40
2018-06-21T13:26:26.193Z,29.50
2018-06-21T13:28:54.709Z,29.50
2018-06-21T13:33:51.650Z,29.30
2018-06-21T13:36:20.128Z,29.30
2018-06-21T13:38:48.699Z,29.30
2018-06-21T13:41:17.193Z,29.30
2018-06-21T13:43:45.830Z,29.00
2018-06-21T13:48:42.650Z,28.40
2018-06-21T13:51:11.308Z,28.30
2018-06-21T13:53:39.746Z,28.10
2018-06-21T13:56:08.260Z,28.00
2018-06-21T14:01:04.984Z,28.00
2018-06-21T14:03:33.474Z,28.10
2018-06-21T14:06:01.971Z,28.20
2018-06-21T14:08:30.545Z,28.30
2018-06-21T14:10:58.962Z,28.30
2018-06-21T14:13:27.441Z,28.30
2018-06-21T14:15:55.922Z,28.20
2018-06-21T14:18:24.454Z,28.10
2018-06-21T14:20:53.057Z,28.20
2018-06-21T14:23:21.478Z,28.20
2018-06-21T14:25:49.952Z,28.30
2018-06-21T14:28:18.439Z,28.20
2018-06-21T14:30:46.991Z,28.20
2018-06-21T14:33:15.664Z,28.10
2018-06-21T14:35:44.150Z,28.00
2018-06-21T14:38:13.142Z,27.90
2018-06-21T14:40:41.869Z,27.60
2018-06-21T14:43:10.319Z,27.40
2018-06-21T14:45:38.816Z,27.40
2018-06-21T14:48:07.387Z,27.30
2018-06-21T14:50:35.819Z,27.30
2018-06-21T14:53:04.594Z,27.30
2018-06-21T14:55:33.155Z,27.20
2018-06-21T14:58:01.867Z,27.10
2018-06-21T15:00:30.443Z,26.80
2018-06-21T15:02:58.948Z,26.70
2018-06-21T15:05:27.406Z,26.50
2018-06-21T15:07:55.919Z,26.40
2018-06-21T15:10:24.404Z,26.30
2018-06-21T15:12:52.889Z,26.10
2018-06-21T15:15:21.421Z,26.00
2018-06-21T15:17:50.051Z,25.90
2018-06-21T15:20:18.665Z,25.80
2018-06-21T15:22:48.080Z,25.60
2018-06-21T15:25:16.634Z,25.50
2018-06-21T15:27:45.093Z,25.50
2018-06-21T15:32:42.557Z,25.50
2018-06-21T15:35:11.024Z,25.50
2018-06-21T15:37:40.372Z,25.60
2018-06-21T15:40:09.001Z,25.70
2018-06-21T15:42:37.549Z,25.70
2018-06-21T15:47:34.374Z,25.90
2018-06-21T15:50:02.865Z,26.00
2018-06-21T15:52:31.367Z,25.90
2018-06-21T15:54:59.892Z,25.80
2018-06-21T15:57:28.561Z,25.70
2018-06-21T15:59:57.233Z,25.50
2018-06-21T16:02:25.797Z,25.30
2018-06-21T16:04:54.477Z,25.20
2018-06-21T16:07:22.997Z,25.20
2018-06-21T16:09:51.467Z,25.20
2018-06-21T16:12:19.999Z,25.30
2018-06-21T16:14:48.553Z,25.20
2018-06-21T16:17:17.220Z,25.20
2018-06-21T16:19:45.766Z,25.10
2018-06-21T16:22:14.273Z,25.00
2018-06-21T16:24:42.770Z,25.00
2018-06-21T16:27:11.348Z,24.90
2018-06-21T16:29:39.834Z,24.80
2018-06-21T16:32:08.387Z,24.80
2018-06-21T16:34:37.686Z,24.70
2018-06-21T16:37:06.272Z,24.70
2018-06-21T16:39:34.806Z,24.70
2018-06-21T16:42:03.468Z,24.70
2018-06-21T16:44:32.007Z,24.70
2018-06-21T16:47:00.546Z,24.70
2018-06-21T16:49:29.150Z,24.60
2018-06-21T16:51:57.647Z,24.60
2018-06-21T16:54:26.320Z,24.60
2018-06-21T16:56:54.959Z,24.60
2018-06-21T16:59:23.503Z,24.60
2018-06-21T17:01:52.024Z,24.50
2018-06-21T17:04:20.626Z,24.50
2018-06-21T17:06:49.202Z,24.40
2018-06-21T17:09:17.698Z,24.30
2018-06-21T17:11:46.819Z,24.30
2018-06-21T17:14:15.448Z,24.20
2018-06-21T17:16:44.038Z,24.20
2018-06-21T17:19:12.607Z,24.10
2018-06-21T17:21:41.784Z,24.00
2018-06-21T17:24:10.307Z,24.00
2018-06-21T17:26:38.916Z,23.90
2018-06-21T17:29:07.369Z,23.90
2018-06-21T17:31:36.055Z,23.80
2018-06-21T17:34:04.571Z,23.80
2018-06-21T17:36:33.179Z,23.80
2018-06-21T17:39:01.759Z,23.70
2018-06-21T17:41:30.385Z,23.70
2018-06-21T17:46:27.359Z,23.60
2018-06-21T17:48:56.075Z,23.50
2018-06-21T17:51:24.786Z,23.40
2018-06-21T17:53:53.410Z,23.30
2018-06-21T17:58:50.400Z,23.20
2018-06-21T18:01:18.931Z,23.20
2018-06-21T18:03:47.602Z,23.10
2018-06-21T18:06:16.256Z,23.10
2018-06-21T18:08:44.882Z,23.10
2018-06-21T18:11:13.448Z,23.00
2018-06-21T18:13:42.140Z,22.90
2018-06-21T18:16:11.038Z,22.90
2018-06-21T18:18:40.504Z,22.90
2018-06-21T18:21:09.117Z,22.80
2018-06-21T18:23:37.956Z,22.80
2018-06-21T18:26:07.001Z,22.70
2018-06-21T18:28:35.649Z,22.70
2018-06-21T18:31:05.219Z,22.60
2018-06-21T18:33:34.204Z,22.70
2018-06-21T18:36:03.013Z,22.70
2018-06-21T18:38:32.026Z,22.80
2018-06-21T18:41:01.326Z,22.80
2018-06-21T18:43:30.133Z,22.70
2018-06-21T18:45:59.034Z,22.70
2018-06-21T18:48:28.905Z,22.70
2018-06-21T18:53:25.969Z,22.70
2018-06-21T18:58:24.312Z,22.60
2018-06-21T19:00:53.084Z,22.60
2018-06-21T19:03:22.528Z,22.60
2018-06-21T19:05:51.785Z,22.60
2018-06-21T19:08:26.085Z,22.60
2018-06-21T19:11:00.173Z,22.70
2018-06-21T19:13:29.444Z,22.60
2018-06-21T19:15:58.376Z,22.60
2018-06-21T19:18:27.709Z,22.60
2018-06-21T19:20:56.921Z,22.60
2018-06-21T19:25:54.760Z,22.50
2018-06-21T19:28:24.806Z,22.50
2018-06-21T19:30:53.989Z,22.50
2018-06-21T19:33:23.215Z,22.50
2018-06-21T19:35:52.633Z,22.50
2018-06-21T19:40:51.766Z,22.30
2018-06-21T19:45:49.839Z,22.00
2018-06-21T19:48:18.560Z,21.60
2018-06-21T19:50:47.305Z,21.40
2018-06-21T19:53:16.089Z,21.30
2018-06-21T19:55:44.666Z,21.30
2018-06-21T19:58:13.412Z,21.00
2018-06-21T20:00:42.102Z,20.40
2018-06-21T20:03:11.603Z,19.90
2018-06-21T20:05:40.496Z,19.70
2018-06-21T20:08:09.440Z,19.60
2018-06-21T20:10:38.268Z,19.60
2018-06-21T20:13:07.166Z,19.50
2018-06-21T20:15:52.089Z,19.50
2018-06-21T20:18:21.536Z,19.40
2018-06-21T20:20:50.290Z,19.30
2018-06-21T20:23:20.208Z,19.30
2018-06-21T20:25:49.226Z,19.30
2018-06-21T20:28:18.581Z,19.30
2018-06-21T20:30:47.181Z,19.30
2018-06-21T20:35:44.393Z,19.10
2018-06-21T20:38:13.058Z,19.10
2018-06-21T20:40:41.609Z,19.00
2018-06-21T20:43:11.401Z,19.00
2018-06-21T20:45:40.136Z,18.90
2018-06-21T20:48:09.292Z,18.70
2018-06-21T20:50:37.859Z,18.70
2018-06-21T20:53:07.175Z,18.70
2018-06-21T20:55:35.789Z,18.70
2018-06-21T20:58:04.326Z,18.70
2018-06-21T21:00:33.074Z,18.60
2018-06-21T21:03:02.484Z,18.60
2018-06-21T21:05:31.109Z,18.60
2018-06-21T21:10:27.704Z,18.60
2018-06-21T21:12:56.366Z,18.60
2018-06-21T21:15:24.924Z,18.40
2018-06-21T21:17:53.478Z,18.40
2018-06-21T21:20:22.052Z,18.30
2018-06-21T21:22:50.522Z,18.30
2018-06-21T21:25:19.116Z,18.20
2018-06-21T21:27:47.600Z,18.10
2018-06-21T21:30:16.150Z,18.10
2018-06-21T21:32:44.602Z,18.10
2018-06-21T21:35:13.252Z,18.10
2018-06-21T21:37:41.732Z,18.00
2018-06-21T21:40:10.286Z,18.00
2018-06-21T21:42:39.324Z,18.10
2018-06-21T21:45:07.983Z,18.00
2018-06-21T21:47:36.664Z,17.90
2018-06-21T21:50:05.136Z,18.00
2018-06-21T21:52:33.672Z,17.90
2018-06-21T21:55:02.112Z,17.90
2018-06-21T21:57:30.754Z,17.90
2018-06-21T21:59:59.193Z,17.90
2018-06-21T22:02:27.639Z,17.80
2018-06-21T22:04:56.083Z,17.70
2018-06-21T22:07:25.527Z,17.70
2018-06-21T22:09:54.018Z,17.70
2018-06-21T22:12:22.545Z,17.50
2018-06-21T22:14:51.005Z,17.40
2018-06-21T22:17:19.479Z,17.50
2018-06-21T22:19:47.963Z,17.40
2018-06-21T22:22:16.441Z,17.30
2018-06-21T22:24:44.863Z,17.30
2018-06-21T22:27:13.329Z,17.20
2018-06-21T22:29:41.810Z,17.20
2018-06-21T22:32:10.196Z,17.10
2018-06-21T22:34:38.721Z,17.10
2018-06-21T22:37:07.290Z,17.00
2018-06-21T22:39:35.749Z,16.90
2018-06-21T22:42:04.192Z,16.90
2018-06-21T22:47:00.855Z,16.70
2018-06-21T22:49:29.306Z,16.70
2018-06-21T22:51:57.758Z,16.70
2018-06-21T22:54:26.565Z,16.60
2018-06-21T22:56:55.033Z,16.60
2018-06-21T22:59:23.510Z,16.60
2018-06-21T23:01:51.981Z,16.50
2018-06-21T23:04:20.429Z,16.50
2018-06-21T23:09:17.147Z,16.40
2018-06-21T23:11:45.661Z,16.30
2018-06-21T23:14:14.108Z,16.30
2018-06-21T23:16:42.557Z,16.30
2018-06-21T23:19:28.720Z,16.10
2018-06-21T23:21:57.233Z,16.10
2018-06-21T23:24:26.247Z,16.10
2018-06-21T23:26:55.045Z,16.00
2018-06-21T23:29:23.729Z,16.00
2018-06-21T23:31:52.596Z,16.00
2018-06-21T23:34:21.379Z,16.00
2018-06-21T23:36:50.433Z,16.00
2018-06-21T23:39:19.510Z,15.90
2018-06-21T23:41:48.064Z,15.90
2018-06-21T23:44:16.559Z,15.80
2018-06-21T23:46:45.044Z,15.80
2018-06-21T23:49:14.104Z,15.70
2018-06-21T23:51:42.569Z,15.70
2018-06-21T23:54:13.275Z,15.70
2018-06-21T23:56:42.817Z,15.70
2018-06-21T23:59:11.323Z,15.70
